sensor_id;sensor_type;location;lat;lon;timestamp;pressure;altitude;pressure_sealevel;temperature;humidity
77855;BME280;67046;50.088;14.336;2023-07-13T00:00:20;97203.61;;;23.65;50.89
77855;BME280;67046;50.088;14.336;2023-07-13T00:01:14;97205.05;;;23.62;51.03
77855;BME280;67046;50.088;14.336;2023-07-13T00:01:46;97208.80;;;23.61;50.91
77855;BME280;67046;50.088;14.336;2023-07-13T00:02:20;97207.76;;;23.60;50.84
77855;BME280;67046;50.088;14.336;2023-07-13T00:02:52;97204.81;;;23.60;50.91
77855;BME280;67046;50.088;14.336;2023-07-13T00:03:26;97209.10;;;23.59;50.71
77855;BME280;67046;50.088;14.336;2023-07-13T00:03:57;97210.36;;;23.58;50.99
77855;BME280;67046;50.088;14.336;2023-07-13T00:04:29;97211.14;;;23.58;50.99
77855;BME280;67046;50.088;14.336;2023-07-13T00:05:00;97208.91;;;23.58;50.95
77855;BME280;67046;50.088;14.336;2023-07-13T00:05:31;97208.52;;;23.59;51.01
77855;BME280;67046;50.088;14.336;2023-07-13T00:06:03;97210.15;;;23.58;50.96
77855;BME280;67046;50.088;14.336;2023-07-13T00:06:34;97207.45;;;23.59;50.91
77855;BME280;67046;50.088;14.336;2023-07-13T00:07:07;97209.92;;;23.59;50.98
77855;BME280;67046;50.088;14.336;2023-07-13T00:07:38;97207.98;;;23.59;51.11
77855;BME280;67046;50.088;14.336;2023-07-13T00:08:09;97206.68;;;23.56;51.08
77855;BME280;67046;50.088;14.336;2023-07-13T00:08:42;97211.80;;;23.55;51.01
77855;BME280;67046;50.088;14.336;2023-07-13T00:09:15;97209.93;;;23.54;51.08
77855;BME280;67046;50.088;14.336;2023-07-13T00:09:48;97212.14;;;23.56;51.11
77855;BME280;67046;50.088;14.336;2023-07-13T00:10:19;97214.90;;;23.56;51.27
77855;BME280;67046;50.088;14.336;2023-07-13T00:10:52;97214.09;;;23.54;51.43
77855;BME280;67046;50.088;14.336;2023-07-13T00:11:25;97215.02;;;23.53;51.34
77855;BME280;67046;50.088;14.336;2023-07-13T00:11:57;97215.47;;;23.52;51.35
77855;BME280;67046;50.088;14.336;2023-07-13T00:12:31;97210.16;;;23.53;51.47
77855;BME280;67046;50.088;14.336;2023-07-13T00:13:03;97216.41;;;23.53;51.72
77855;BME280;67046;50.088;14.336;2023-07-13T00:13:34;97217.20;;;23.53;51.62
77855;BME280;67046;50.088;14.336;2023-07-13T00:14:09;97217.87;;;23.53;51.67
77855;BME280;67046;50.088;14.336;2023-07-13T00:14:41;97215.76;;;23.52;51.73
77855;BME280;67046;50.088;14.336;2023-07-13T00:15:18;97218.98;;;23.51;51.90
77855;BME280;67046;50.088;14.336;2023-07-13T00:15:54;97215.16;;;23.50;51.86
77855;BME280;67046;50.088;14.336;2023-07-13T00:16:25;97217.12;;;23.49;51.83
77855;BME280;67046;50.088;14.336;2023-07-13T00:16:56;97211.88;;;23.49;52.00
77855;BME280;67046;50.088;14.336;2023-07-13T00:17:28;97213.79;;;23.48;52.04
77855;BME280;67046;50.088;14.336;2023-07-13T00:17:59;97211.09;;;23.48;51.87
77855;BME280;67046;50.088;14.336;2023-07-13T00:18:32;97213.91;;;23.48;51.99
77855;BME280;67046;50.088;14.336;2023-07-13T00:19:04;97213.43;;;23.48;52.12
77855;BME280;67046;50.088;14.336;2023-07-13T00:19:35;97213.05;;;23.48;52.28
77855;BME280;67046;50.088;14.336;2023-07-13T00:20:07;97215.45;;;23.46;52.40
77855;BME280;67046;50.088;14.336;2023-07-13T00:20:39;97213.80;;;23.45;52.34
77855;BME280;67046;50.088;14.336;2023-07-13T00:21:12;97219.77;;;23.46;52.48
77855;BME280;67046;50.088;14.336;2023-07-13T00:21:43;97219.84;;;23.45;52.56
77855;BME280;67046;50.088;14.336;2023-07-13T00:22:15;97218.44;;;23.45;52.42
77855;BME280;67046;50.088;14.336;2023-07-13T00:22:49;97218.63;;;23.46;52.53
77855;BME280;67046;50.088;14.336;2023-07-13T00:23:20;97220.09;;;23.46;52.55
77855;BME280;67046;50.088;14.336;2023-07-13T00:23:52;97220.84;;;23.46;52.63
77855;BME280;67046;50.088;14.336;2023-07-13T00:24:23;97220.53;;;23.46;52.51
77855;BME280;67046;50.088;14.336;2023-07-13T00:24:55;97221.10;;;23.44;52.44
77855;BME280;67046;50.088;14.336;2023-07-13T00:25:29;97219.88;;;23.44;52.46
77855;BME280;67046;50.088;14.336;2023-07-13T00:26:02;97216.02;;;23.45;52.55
77855;BME280;67046;50.088;14.336;2023-07-13T00:26:34;97215.10;;;23.45;52.56
77855;BME280;67046;50.088;14.336;2023-07-13T00:27:05;97218.09;;;23.46;52.53
77855;BME280;67046;50.088;14.336;2023-07-13T00:27:36;97218.16;;;23.46;52.40
77855;BME280;67046;50.088;14.336;2023-07-13T00:28:07;97215.01;;;23.46;52.60
77855;BME280;67046;50.088;14.336;2023-07-13T00:28:39;97214.63;;;23.46;52.57
77855;BME280;67046;50.088;14.336;2023-07-13T00:29:11;97212.31;;;23.46;52.93
77855;BME280;67046;50.088;14.336;2023-07-13T00:29:42;97208.54;;;23.46;52.63
77855;BME280;67046;50.088;14.336;2023-07-13T00:30:15;97209.61;;;23.46;52.70
77855;BME280;67046;50.088;14.336;2023-07-13T00:30:46;97205.18;;;23.45;52.75
77855;BME280;67046;50.088;14.336;2023-07-13T00:31:17;97201.15;;;23.45;52.65
77855;BME280;67046;50.088;14.336;2023-07-13T00:31:49;97204.89;;;23.46;52.72
77855;BME280;67046;50.088;14.336;2023-07-13T00:32:20;97201.34;;;23.45;52.72
77855;BME280;67046;50.088;14.336;2023-07-13T00:32:51;97196.80;;;23.45;52.79
77855;BME280;67046;50.088;14.336;2023-07-13T00:33:23;97194.95;;;23.46;52.67
77855;BME280;67046;50.088;14.336;2023-07-13T00:33:54;97192.52;;;23.47;52.76
77855;BME280;67046;50.088;14.336;2023-07-13T00:34:25;97191.77;;;23.47;52.71
77855;BME280;67046;50.088;14.336;2023-07-13T00:34:57;97191.16;;;23.47;52.85
77855;BME280;67046;50.088;14.336;2023-07-13T00:35:31;97186.02;;;23.48;52.83
77855;BME280;67046;50.088;14.336;2023-07-13T00:36:03;97190.81;;;23.48;52.79
77855;BME280;67046;50.088;14.336;2023-07-13T00:36:34;97189.63;;;23.48;52.89
77855;BME280;67046;50.088;14.336;2023-07-13T00:37:07;97187.14;;;23.49;52.86
77855;BME280;67046;50.088;14.336;2023-07-13T00:37:38;97188.59;;;23.49;52.83
77855;BME280;67046;50.088;14.336;2023-07-13T00:38:10;97185.89;;;23.49;52.90
77855;BME280;67046;50.088;14.336;2023-07-13T00:38:41;97185.06;;;23.49;53.09
77855;BME280;67046;50.088;14.336;2023-07-13T00:39:12;97183.16;;;23.48;53.03
77855;BME280;67046;50.088;14.336;2023-07-13T00:39:43;97180.98;;;23.47;52.98
77855;BME280;67046;50.088;14.336;2023-07-13T00:40:16;97180.18;;;23.47;53.26
77855;BME280;67046;50.088;14.336;2023-07-13T00:40:47;97175.95;;;23.46;53.12
77855;BME280;67046;50.088;14.336;2023-07-13T00:41:19;97177.85;;;23.46;53.24
77855;BME280;67046;50.088;14.336;2023-07-13T00:41:50;97172.23;;;23.46;53.36
77855;BME280;67046;50.088;14.336;2023-07-13T00:42:22;97175.79;;;23.46;53.52
77855;BME280;67046;50.088;14.336;2023-07-13T00:42:53;97173.17;;;23.47;53.35
77855;BME280;67046;50.088;14.336;2023-07-13T00:43:27;97172.02;;;23.47;53.75
77855;BME280;67046;50.088;14.336;2023-07-13T00:43:59;97176.01;;;23.46;53.62
77855;BME280;67046;50.088;14.336;2023-07-13T00:44:30;97178.52;;;23.45;53.68
77855;BME280;67046;50.088;14.336;2023-07-13T00:46:48;97179.23;;;23.42;54.03
77855;BME280;67046;50.088;14.336;2023-07-13T00:47:19;97174.73;;;23.41;53.88
77855;BME280;67046;50.088;14.336;2023-07-13T00:47:50;97174.17;;;23.40;53.99
77855;BME280;67046;50.088;14.336;2023-07-13T00:48:25;97175.80;;;23.40;54.13
77855;BME280;67046;50.088;14.336;2023-07-13T00:49:05;97169.93;;;23.40;54.23
77855;BME280;67046;50.088;14.336;2023-07-13T00:49:37;97170.85;;;23.40;54.20
77855;BME280;67046;50.088;14.336;2023-07-13T00:50:12;97170.69;;;23.40;54.29
77855;BME280;67046;50.088;14.336;2023-07-13T00:50:47;97168.31;;;23.40;54.52
77855;BME280;67046;50.088;14.336;2023-07-13T00:51:25;97167.52;;;23.40;54.66
77855;BME280;67046;50.088;14.336;2023-07-13T00:52:05;97167.96;;;23.39;54.71
77855;BME280;67046;50.088;14.336;2023-07-13T00:52:40;97165.77;;;23.38;55.05
77855;BME280;67046;50.088;14.336;2023-07-13T00:53:13;97165.06;;;23.37;54.96
77855;BME280;67046;50.088;14.336;2023-07-13T00:53:44;97167.40;;;23.36;55.07
77855;BME280;67046;50.088;14.336;2023-07-13T00:54:22;97163.33;;;23.36;55.12
77855;BME280;67046;50.088;14.336;2023-07-13T00:54:54;97161.18;;;23.35;55.28
77855;BME280;67046;50.088;14.336;2023-07-13T00:55:26;97160.56;;;23.35;55.44
77855;BME280;67046;50.088;14.336;2023-07-13T00:55:57;97162.00;;;23.33;55.62
77855;BME280;67046;50.088;14.336;2023-07-13T00:56:29;97162.77;;;23.33;55.66
77855;BME280;67046;50.088;14.336;2023-07-13T00:57:03;97159.91;;;23.33;55.87
77855;BME280;67046;50.088;14.336;2023-07-13T00:57:36;97159.60;;;23.33;55.64
77855;BME280;67046;50.088;14.336;2023-07-13T00:58:08;97158.91;;;23.33;55.77
77855;BME280;67046;50.088;14.336;2023-07-13T00:58:39;97163.19;;;23.34;55.81
77855;BME280;67046;50.088;14.336;2023-07-13T00:59:12;97162.61;;;23.35;55.83
77855;BME280;67046;50.088;14.336;2023-07-13T00:59:47;97162.55;;;23.35;56.01
77855;BME280;67046;50.088;14.336;2023-07-13T01:00:20;97162.55;;;23.35;56.18
77855;BME280;67046;50.088;14.336;2023-07-13T01:00:53;97162.94;;;23.36;56.38
77855;BME280;67046;50.088;14.336;2023-07-13T01:01:24;97161.16;;;23.35;56.45
77855;BME280;67046;50.088;14.336;2023-07-13T01:01:56;97161.15;;;23.35;56.55
77855;BME280;67046;50.088;14.336;2023-07-13T01:02:28;97164.00;;;23.35;56.60
77855;BME280;67046;50.088;14.336;2023-07-13T01:02:59;97165.81;;;23.34;56.61
77855;BME280;67046;50.088;14.336;2023-07-13T01:03:34;97164.88;;;23.32;56.80
77855;BME280;67046;50.088;14.336;2023-07-13T01:04:06;97167.91;;;23.30;56.67
77855;BME280;67046;50.088;14.336;2023-07-13T01:04:39;97166.30;;;23.30;57.11
77855;BME280;67046;50.088;14.336;2023-07-13T01:05:12;97169.05;;;23.30;57.25
77855;BME280;67046;50.088;14.336;2023-07-13T01:05:47;97166.73;;;23.30;57.14
77855;BME280;67046;50.088;14.336;2023-07-13T01:06:19;97169.34;;;23.30;57.23
77855;BME280;67046;50.088;14.336;2023-07-13T01:06:50;97168.20;;;23.30;57.25
77855;BME280;67046;50.088;14.336;2023-07-13T01:07:22;97168.42;;;23.30;57.36
77855;BME280;67046;50.088;14.336;2023-07-13T01:07:54;97168.12;;;23.30;57.21
77855;BME280;67046;50.088;14.336;2023-07-13T01:08:26;97165.20;;;23.30;57.64
77855;BME280;67046;50.088;14.336;2023-07-13T01:08:58;97168.29;;;23.30;57.68
77855;BME280;67046;50.088;14.336;2023-07-13T01:09:29;97163.34;;;23.30;57.97
77855;BME280;67046;50.088;14.336;2023-07-13T01:10:01;97162.60;;;23.28;57.95
77855;BME280;67046;50.088;14.336;2023-07-13T01:10:32;97163.58;;;23.28;57.97
77855;BME280;67046;50.088;14.336;2023-07-13T01:11:09;97165.55;;;23.27;58.72
77855;BME280;67046;50.088;14.336;2023-07-13T01:11:41;97166.89;;;23.26;58.46
77855;BME280;67046;50.088;14.336;2023-07-13T01:12:13;97160.93;;;23.25;58.68
77855;BME280;67046;50.088;14.336;2023-07-13T01:12:44;97165.45;;;23.24;58.80
77855;BME280;67046;50.088;14.336;2023-07-13T01:13:16;97160.76;;;23.24;58.85
77855;BME280;67046;50.088;14.336;2023-07-13T01:13:47;97165.20;;;23.24;58.92
77855;BME280;67046;50.088;14.336;2023-07-13T01:14:19;97160.84;;;23.25;58.89
77855;BME280;67046;50.088;14.336;2023-07-13T01:14:59;97160.69;;;23.25;59.13
77855;BME280;67046;50.088;14.336;2023-07-13T01:15:39;97159.19;;;23.24;59.00
77855;BME280;67046;50.088;14.336;2023-07-13T01:16:19;97156.23;;;23.23;58.97
77855;BME280;67046;50.088;14.336;2023-07-13T01:16:53;97160.26;;;23.22;59.27
77855;BME280;67046;50.088;14.336;2023-07-13T01:17:26;97156.91;;;23.21;59.44
77855;BME280;67046;50.088;14.336;2023-07-13T01:17:58;97155.13;;;23.21;59.43
77855;BME280;67046;50.088;14.336;2023-07-13T01:18:30;97154.44;;;23.20;59.29
77855;BME280;67046;50.088;14.336;2023-07-13T01:19:03;97157.98;;;23.21;59.41
77855;BME280;67046;50.088;14.336;2023-07-13T01:19:46;97155.70;;;23.20;59.74
77855;BME280;67046;50.088;14.336;2023-07-13T01:20:18;97155.14;;;23.19;59.57
77855;BME280;67046;50.088;14.336;2023-07-13T01:21:01;97156.20;;;23.18;59.54
77855;BME280;67046;50.088;14.336;2023-07-13T01:21:33;97152.04;;;23.18;59.72
77855;BME280;67046;50.088;14.336;2023-07-13T01:22:08;97153.38;;;23.17;59.74
77855;BME280;67046;50.088;14.336;2023-07-13T01:22:40;97154.61;;;23.17;59.82
77855;BME280;67046;50.088;14.336;2023-07-13T01:23:11;97149.86;;;23.16;59.77
77855;BME280;67046;50.088;14.336;2023-07-13T01:23:44;97152.29;;;23.17;60.37
77855;BME280;67046;50.088;14.336;2023-07-13T01:24:15;97152.83;;;23.17;60.06
77855;BME280;67046;50.088;14.336;2023-07-13T01:24:47;97152.55;;;23.18;59.85
77855;BME280;67046;50.088;14.336;2023-07-13T01:25:19;97154.00;;;23.17;60.02
77855;BME280;67046;50.088;14.336;2023-07-13T01:25:51;97150.50;;;23.16;60.11
77855;BME280;67046;50.088;14.336;2023-07-13T01:26:22;97151.11;;;23.16;60.20
77855;BME280;67046;50.088;14.336;2023-07-13T01:26:53;97150.10;;;23.16;60.28
77855;BME280;67046;50.088;14.336;2023-07-13T01:27:26;97153.03;;;23.16;60.40
77855;BME280;67046;50.088;14.336;2023-07-13T01:27:57;97147.79;;;23.15;60.25
77855;BME280;67046;50.088;14.336;2023-07-13T01:28:29;97148.00;;;23.15;60.53
77855;BME280;67046;50.088;14.336;2023-07-13T01:29:00;97149.54;;;23.15;60.81
77855;BME280;67046;50.088;14.336;2023-07-13T01:29:34;97148.48;;;23.16;60.50
77855;BME280;67046;50.088;14.336;2023-07-13T01:30:13;97148.92;;;23.15;60.77
77855;BME280;67046;50.088;14.336;2023-07-13T01:30:45;97150.54;;;23.15;60.54
77855;BME280;67046;50.088;14.336;2023-07-13T01:31:17;97152.70;;;23.15;60.71
77855;BME280;67046;50.088;14.336;2023-07-13T01:31:48;97148.41;;;23.14;60.90
77855;BME280;67046;50.088;14.336;2023-07-13T01:32:23;97145.48;;;23.14;60.79
77855;BME280;67046;50.088;14.336;2023-07-13T01:32:55;97150.02;;;23.14;60.77
77855;BME280;67046;50.088;14.336;2023-07-13T01:33:26;97146.95;;;23.14;60.87
77855;BME280;67046;50.088;14.336;2023-07-13T01:33:57;97146.48;;;23.14;60.62
77855;BME280;67046;50.088;14.336;2023-07-13T01:34:29;97149.80;;;23.14;60.72
77855;BME280;67046;50.088;14.336;2023-07-13T01:35:00;97147.81;;;23.14;60.75
77855;BME280;67046;50.088;14.336;2023-07-13T01:35:31;97147.74;;;23.15;61.11
77855;BME280;67046;50.088;14.336;2023-07-13T01:36:03;97145.34;;;23.14;61.53
77855;BME280;67046;50.088;14.336;2023-07-13T01:36:34;97146.92;;;23.14;61.54
77855;BME280;67046;50.088;14.336;2023-07-13T01:37:06;97141.20;;;23.13;61.68
77855;BME280;67046;50.088;14.336;2023-07-13T01:37:38;97140.92;;;23.11;61.74
77855;BME280;67046;50.088;14.336;2023-07-13T01:38:10;97141.50;;;23.10;61.69
77855;BME280;67046;50.088;14.336;2023-07-13T01:38:41;97138.02;;;23.09;61.65
77855;BME280;67046;50.088;14.336;2023-07-13T01:39:13;97140.14;;;23.09;62.05
77855;BME280;67046;50.088;14.336;2023-07-13T01:39:46;97139.89;;;23.08;61.89
77855;BME280;67046;50.088;14.336;2023-07-13T01:40:17;97139.05;;;23.06;62.02
77855;BME280;67046;50.088;14.336;2023-07-13T01:40:52;97139.33;;;23.06;62.04
77855;BME280;67046;50.088;14.336;2023-07-13T01:41:24;97138.90;;;23.05;61.89
77855;BME280;67046;50.088;14.336;2023-07-13T01:41:55;97142.98;;;23.04;62.15
77855;BME280;67046;50.088;14.336;2023-07-13T01:42:28;97142.68;;;23.03;62.86
77855;BME280;67046;50.088;14.336;2023-07-13T01:42:59;97144.34;;;23.02;62.54
77855;BME280;67046;50.088;14.336;2023-07-13T01:43:30;97144.41;;;23.00;63.00
77855;BME280;67046;50.088;14.336;2023-07-13T01:44:03;97144.06;;;22.99;62.99
77855;BME280;67046;50.088;14.336;2023-07-13T01:44:34;97147.12;;;22.98;62.99
77855;BME280;67046;50.088;14.336;2023-07-13T01:45:06;97145.60;;;22.97;63.25
77855;BME280;67046;50.088;14.336;2023-07-13T01:45:37;97145.20;;;22.96;63.16
77855;BME280;67046;50.088;14.336;2023-07-13T01:46:09;97144.92;;;22.95;63.11
77855;BME280;67046;50.088;14.336;2023-07-13T01:46:40;97148.38;;;22.95;62.84
77855;BME280;67046;50.088;14.336;2023-07-13T01:47:11;97148.70;;;22.95;62.87
77855;BME280;67046;50.088;14.336;2023-07-13T01:47:43;97146.83;;;22.95;62.69
77855;BME280;67046;50.088;14.336;2023-07-13T01:48:14;97146.92;;;22.95;62.60
77855;BME280;67046;50.088;14.336;2023-07-13T01:48:45;97148.41;;;22.95;63.11
77855;BME280;67046;50.088;14.336;2023-07-13T01:49:16;97150.80;;;22.95;62.96
77855;BME280;67046;50.088;14.336;2023-07-13T01:49:48;97147.62;;;22.95;63.10
77855;BME280;67046;50.088;14.336;2023-07-13T01:50:19;97149.45;;;22.95;63.00
77855;BME280;67046;50.088;14.336;2023-07-13T01:50:50;97148.32;;;22.95;63.16
77855;BME280;67046;50.088;14.336;2023-07-13T01:51:22;97150.22;;;22.95;63.16
77855;BME280;67046;50.088;14.336;2023-07-13T01:51:53;97152.66;;;22.94;63.44
77855;BME280;67046;50.088;14.336;2023-07-13T01:52:24;97148.26;;;22.94;63.23
77855;BME280;67046;50.088;14.336;2023-07-13T01:52:55;97146.92;;;22.93;63.25
77855;BME280;67046;50.088;14.336;2023-07-13T01:53:27;97149.08;;;22.93;63.11
77855;BME280;67046;50.088;14.336;2023-07-13T01:53:58;97150.06;;;22.93;63.80
77855;BME280;67046;50.088;14.336;2023-07-13T01:54:29;97152.76;;;22.93;63.44
77855;BME280;67046;50.088;14.336;2023-07-13T01:55:00;97151.13;;;22.92;63.41
77855;BME280;67046;50.088;14.336;2023-07-13T01:55:33;97151.98;;;22.92;63.55
77855;BME280;67046;50.088;14.336;2023-07-13T01:56:04;97150.59;;;22.92;63.31
77855;BME280;67046;50.088;14.336;2023-07-13T01:56:35;97151.72;;;22.92;63.50
77855;BME280;67046;50.088;14.336;2023-07-13T01:57:06;97152.04;;;22.92;63.70
77855;BME280;67046;50.088;14.336;2023-07-13T01:57:38;97151.66;;;22.92;63.63
77855;BME280;67046;50.088;14.336;2023-07-13T01:58:09;97152.20;;;22.92;63.38
77855;BME280;67046;50.088;14.336;2023-07-13T01:58:40;97152.44;;;22.93;63.63
77855;BME280;67046;50.088;14.336;2023-07-13T01:59:12;97153.77;;;22.93;63.81
77855;BME280;67046;50.088;14.336;2023-07-13T01:59:43;97152.96;;;22.92;63.62
77855;BME280;67046;50.088;14.336;2023-07-13T02:00:15;97155.17;;;22.92;63.66
77855;BME280;67046;50.088;14.336;2023-07-13T02:00:48;97154.48;;;22.92;63.58
77855;BME280;67046;50.088;14.336;2023-07-13T02:01:21;97155.40;;;22.91;63.55
77855;BME280;67046;50.088;14.336;2023-07-13T02:01:52;97155.85;;;22.91;63.97
77855;BME280;67046;50.088;14.336;2023-07-13T02:02:23;97152.23;;;22.91;63.82
77855;BME280;67046;50.088;14.336;2023-07-13T02:02:54;97149.95;;;22.92;63.49
77855;BME280;67046;50.088;14.336;2023-07-13T02:03:26;97154.23;;;22.91;63.70
77855;BME280;67046;50.088;14.336;2023-07-13T02:03:57;97154.61;;;22.91;64.32
77855;BME280;67046;50.088;14.336;2023-07-13T02:04:28;97148.85;;;22.89;64.09
77855;BME280;67046;50.088;14.336;2023-07-13T02:04:59;97153.39;;;22.89;64.17
77855;BME280;67046;50.088;14.336;2023-07-13T02:05:30;97150.60;;;22.89;63.98
77855;BME280;67046;50.088;14.336;2023-07-13T02:06:02;97151.10;;;22.88;63.95
77855;BME280;67046;50.088;14.336;2023-07-13T02:06:33;97149.86;;;22.88;63.96
77855;BME280;67046;50.088;14.336;2023-07-13T02:07:05;97153.02;;;22.88;63.85
77855;BME280;67046;50.088;14.336;2023-07-13T02:07:36;97152.16;;;22.87;63.84
77855;BME280;67046;50.088;14.336;2023-07-13T02:08:07;97154.17;;;22.87;63.74
77855;BME280;67046;50.088;14.336;2023-07-13T02:08:40;97154.63;;;22.88;63.88
77855;BME280;67046;50.088;14.336;2023-07-13T02:09:11;97156.58;;;22.88;63.84
77855;BME280;67046;50.088;14.336;2023-07-13T02:09:43;97155.19;;;22.88;63.74
77855;BME280;67046;50.088;14.336;2023-07-13T02:10:14;97155.23;;;22.89;63.92
77855;BME280;67046;50.088;14.336;2023-07-13T02:10:46;97153.83;;;22.89;64.10
77855;BME280;67046;50.088;14.336;2023-07-13T02:11:17;97153.10;;;22.88;64.18
77855;BME280;67046;50.088;14.336;2023-07-13T02:11:48;97149.92;;;22.88;64.17
77855;BME280;67046;50.088;14.336;2023-07-13T02:12:20;97149.86;;;22.87;63.96
77855;BME280;67046;50.088;14.336;2023-07-13T02:12:51;97147.95;;;22.88;63.95
77855;BME280;67046;50.088;14.336;2023-07-13T02:13:22;97146.46;;;22.87;63.90
77855;BME280;67046;50.088;14.336;2023-07-13T02:13:53;97146.55;;;22.88;64.02
77855;BME280;67046;50.088;14.336;2023-07-13T02:14:25;97149.24;;;22.87;64.06
77855;BME280;67046;50.088;14.336;2023-07-13T02:14:56;97148.77;;;22.88;63.98
77855;BME280;67046;50.088;14.336;2023-07-13T02:15:27;97143.67;;;22.87;64.43
77855;BME280;67046;50.088;14.336;2023-07-13T02:15:58;97147.95;;;22.86;64.74
77855;BME280;67046;50.088;14.336;2023-07-13T02:16:30;97148.75;;;22.85;64.39
77855;BME280;67046;50.088;14.336;2023-07-13T02:17:02;97146.98;;;22.83;64.27
77855;BME280;67046;50.088;14.336;2023-07-13T02:17:35;97146.27;;;22.83;64.40
77855;BME280;67046;50.088;14.336;2023-07-13T02:18:06;97150.56;;;22.82;64.31
77855;BME280;67046;50.088;14.336;2023-07-13T02:18:38;97147.23;;;22.82;64.41
77855;BME280;67046;50.088;14.336;2023-07-13T02:19:09;97149.59;;;22.81;64.31
77855;BME280;67046;50.088;14.336;2023-07-13T02:19:40;97152.26;;;22.80;64.79
77855;BME280;67046;50.088;14.336;2023-07-13T02:20:12;97149.98;;;22.79;64.89
77855;BME280;67046;50.088;14.336;2023-07-13T02:20:44;97153.10;;;22.78;65.16
77855;BME280;67046;50.088;14.336;2023-07-13T02:21:15;97152.03;;;22.76;64.87
77855;BME280;67046;50.088;14.336;2023-07-13T02:21:46;97151.91;;;22.75;64.59
77855;BME280;67046;50.088;14.336;2023-07-13T02:22:18;97155.11;;;22.74;64.54
77855;BME280;67046;50.088;14.336;2023-07-13T02:22:49;97156.31;;;22.74;64.75
77855;BME280;67046;50.088;14.336;2023-07-13T02:23:20;97154.91;;;22.74;64.73
77855;BME280;67046;50.088;14.336;2023-07-13T02:23:52;97156.58;;;22.73;64.79
77855;BME280;67046;50.088;14.336;2023-07-13T02:24:23;97155.80;;;22.72;65.35
77855;BME280;67046;50.088;14.336;2023-07-13T02:24:55;97159.19;;;22.71;65.27
77855;BME280;67046;50.088;14.336;2023-07-13T02:25:26;97157.83;;;22.69;64.94
77855;BME280;67046;50.088;14.336;2023-07-13T02:25:59;97162.33;;;22.68;65.06
77855;BME280;67046;50.088;14.336;2023-07-13T02:26:30;97159.84;;;22.68;65.08
77855;BME280;67046;50.088;14.336;2023-07-13T02:27:02;97161.30;;;22.66;65.24
77855;BME280;67046;50.088;14.336;2023-07-13T02:27:33;97161.91;;;22.65;65.09
77855;BME280;67046;50.088;14.336;2023-07-13T02:28:04;97166.31;;;22.64;65.67
77855;BME280;67046;50.088;14.336;2023-07-13T02:28:36;97167.24;;;22.63;65.28
77855;BME280;67046;50.088;14.336;2023-07-13T02:29:07;97172.29;;;22.62;65.45
77855;BME280;67046;50.088;14.336;2023-07-13T02:29:38;97168.92;;;22.61;65.41
77855;BME280;67046;50.088;14.336;2023-07-13T02:30:11;97170.59;;;22.60;65.52
77855;BME280;67046;50.088;14.336;2023-07-13T02:30:42;97166.85;;;22.59;65.69
77855;BME280;67046;50.088;14.336;2023-07-13T02:31:15;97168.15;;;22.57;65.87
77855;BME280;67046;50.088;14.336;2023-07-13T02:31:46;97167.78;;;22.56;65.81
77855;BME280;67046;50.088;14.336;2023-07-13T02:32:18;97170.05;;;22.55;65.77
77855;BME280;67046;50.088;14.336;2023-07-13T02:32:49;97168.16;;;22.54;65.76
77855;BME280;67046;50.088;14.336;2023-07-13T02:33:20;97168.99;;;22.53;65.58
77855;BME280;67046;50.088;14.336;2023-07-13T02:33:51;97167.48;;;22.52;65.85
77855;BME280;67046;50.088;14.336;2023-07-13T02:34:23;97167.98;;;22.51;65.54
77855;BME280;67046;50.088;14.336;2023-07-13T02:34:54;97167.05;;;22.50;65.62
77855;BME280;67046;50.088;14.336;2023-07-13T02:35:25;97166.55;;;22.50;65.70
77855;BME280;67046;50.088;14.336;2023-07-13T02:35:57;97167.64;;;22.50;66.18
77855;BME280;67046;50.088;14.336;2023-07-13T02:36:28;97169.20;;;22.49;65.91
77855;BME280;67046;50.088;14.336;2023-07-13T02:37:00;97167.02;;;22.48;66.54
77855;BME280;67046;50.088;14.336;2023-07-13T02:37:31;97171.04;;;22.47;66.07
77855;BME280;67046;50.088;14.336;2023-07-13T02:38:02;97170.31;;;22.46;66.01
77855;BME280;67046;50.088;14.336;2023-07-13T02:38:34;97172.77;;;22.45;65.88
77855;BME280;67046;50.088;14.336;2023-07-13T02:39:07;97171.75;;;22.45;66.23
77855;BME280;67046;50.088;14.336;2023-07-13T02:39:38;97174.73;;;22.45;65.94
77855;BME280;67046;50.088;14.336;2023-07-13T02:40:09;97181.96;;;22.44;66.06
77855;BME280;67046;50.088;14.336;2023-07-13T02:40:41;97179.52;;;22.45;66.01
77855;BME280;67046;50.088;14.336;2023-07-13T02:41:12;97181.58;;;22.45;65.97
77855;BME280;67046;50.088;14.336;2023-07-13T02:41:43;97183.41;;;22.44;65.98
77855;BME280;67046;50.088;14.336;2023-07-13T02:42:14;97182.04;;;22.45;66.57
77855;BME280;67046;50.088;14.336;2023-07-13T02:42:46;97182.17;;;22.44;66.31
77855;BME280;67046;50.088;14.336;2023-07-13T02:43:17;97182.20;;;22.43;66.77
77855;BME280;67046;50.088;14.336;2023-07-13T02:43:48;97179.31;;;22.43;66.63
77855;BME280;67046;50.088;14.336;2023-07-13T02:44:20;97182.44;;;22.41;66.74
77855;BME280;67046;50.088;14.336;2023-07-13T02:44:51;97185.48;;;22.41;66.50
77855;BME280;67046;50.088;14.336;2023-07-13T02:45:22;97181.31;;;22.40;66.64
77855;BME280;67046;50.088;14.336;2023-07-13T02:45:54;97184.66;;;22.39;66.56
77855;BME280;67046;50.088;14.336;2023-07-13T02:46:25;97184.92;;;22.40;66.96
77855;BME280;67046;50.088;14.336;2023-07-13T02:46:56;97186.09;;;22.39;66.64
77855;BME280;67046;50.088;14.336;2023-07-13T02:47:28;97186.59;;;22.38;66.56
77855;BME280;67046;50.088;14.336;2023-07-13T02:47:59;97188.44;;;22.38;66.60
77855;BME280;67046;50.088;14.336;2023-07-13T02:48:30;97188.18;;;22.37;66.67
77855;BME280;67046;50.088;14.336;2023-07-13T02:49:02;97190.03;;;22.37;66.89
77855;BME280;67046;50.088;14.336;2023-07-13T02:49:33;97191.52;;;22.36;67.13
77855;BME280;67046;50.088;14.336;2023-07-13T02:50:05;97189.55;;;22.35;66.94